KDSM/DSM METAR and TAF weather

Enter ICAO airport designator
Station Type Date Time Source
KDSM METAR 2019/06/26 21:54 UTC NOAA

KDSM 262154Z 19005KT 10SM FEW045 FEW180 BKN250 29/17 A2999 RMK AO2 SLP149 T02890167


Station Type Date Time Source
KDSM Decoded METAR 2019/06/26 21:54 UTC NOAA

DES MOINES INTERNATIONAL, IA, United States (KDSM) 41-32N 93-40W 295M
Jun 26, 2019 - 05:54 PM EDT / 2019.06.26 2154 UTC
Wind: from the S (190 degrees) at 6 MPH (5 KT):0
Visibility: 10 mile(s):0
Sky conditions: mostly cloudy
Temperature: 84.0 F (28.9 C)
Dew Point: 62.1 F (16.7 C)
Relative Humidity: 47%
Pressure (altimeter): 29.99 in. Hg (1015 hPa)
ob: KDSM 262154Z 19005KT 10SM FEW045 FEW180 BKN250 29/17 A2999 RMK AO2 SLP149 T02890167
cycle: 22

Station Type Date Time Source
KDSM TAF 2019/06/26 18:22 UTC NOAA

TAF KDSM 261720Z 2618/2718 18005KT P6SM BKN250
FM270900 19005KT P6SM BKN150
FM271400 19007KT P6SM SCT060 BKN150

Example: see airport list